Chestnut, Louisiana
Current Conditions -  °F | °C
As of 5:35 AM on Friday 19 Dec 2014 (Local Time) from KIER Reporting Station
Moderate Rain Moderate Rain  
Wind Chill: 50°   Ceiling: 1600
Heat Index: 50°   Visibility: 4mi
Dew Point: 49°   Wind: 0mph
Humidity: 95%   Direction: NA
Pressure: 30.13"   Gusts: NA
Location:  32.1401°N, 92.9428°W
Report Text: KIER 191135Z AUTO 00000KT 4SM RA OVC016 10/09 A3013 RMK AO2 T01000092
Loading
Personal Weather Stations






























Interactive Weather Map New forecast layout! Learn more

10-Day Weather Forecast

Advertisements
Track Severe Weather on mobile